createdAt,value
2019-05-01T00:03:43.465Z,1.48
2019-05-01T00:07:21.669Z,1.45
2019-05-01T00:10:51.758Z,1.75
2019-05-01T00:14:22.289Z,1.46
2019-05-01T00:17:52.305Z,1.3
2019-05-01T00:21:22.328Z,1.79
2019-05-01T00:24:52.369Z,1.23
2019-05-01T00:28:22.485Z,1.6
2019-05-01T00:31:52.561Z,1.89
2019-05-01T00:35:22.524Z,1.44
2019-05-01T00:38:52.605Z,1.73
2019-05-01T00:42:22.628Z,1.59
2019-05-01T00:45:52.764Z,2.12
2019-05-01T00:49:22.948Z,2.46
2019-05-01T00:52:53.091Z,1.81
2019-05-01T00:56:31.894Z,1.77
2019-05-01T01:02:37.522Z,2.17
2019-05-01T01:06:07.893Z,1.98
2019-05-01T01:09:37.975Z,2.09
2019-05-01T01:13:07.958Z,1.94
2019-05-01T01:16:38.205Z,2.1
2019-05-01T01:20:08.435Z,1.76
2019-05-01T01:23:38.517Z,2.53
2019-05-01T01:27:08.686Z,2.55
2019-05-01T01:30:38.871Z,2.06
2019-05-01T01:34:09.014Z,2.6
2019-05-01T01:37:39.117Z,2.56
2019-05-01T01:41:09.715Z,2.64
2019-05-01T01:44:47.901Z,2.36
2019-05-01T01:48:18.166Z,3.05
2019-05-01T01:51:49.951Z,2.48
2019-05-01T01:55:20.031Z,2.8
2019-05-01T01:58:51.010Z,1.95
2019-05-01T02:02:33.831Z,2.23
2019-05-01T02:06:04.071Z,2.34
2019-05-01T02:09:34.244Z,2.11
2019-05-01T02:13:04.522Z,2.1
2019-05-01T02:16:34.565Z,2.67
2019-05-01T02:20:06.718Z,2.47
2019-05-01T02:23:36.800Z,2.54
2019-05-01T02:27:13.287Z,2.34
2019-05-01T02:31:05.317Z,1.62
2019-05-01T02:34:36.920Z,2.24
2019-05-01T02:38:08.803Z,2.23
2019-05-01T02:41:41.992Z,2.15
2019-05-01T02:45:12.153Z,2.24
2019-05-01T02:48:52.876Z,1.68
2019-05-01T02:52:30.566Z,2.16
2019-05-01T02:56:42.601Z,2.08
2019-05-01T03:00:16.312Z,2.25
2019-05-01T03:03:48.017Z,2.85
2019-05-01T03:07:19.425Z,2.16
2019-05-01T03:10:49.570Z,2.01
2019-05-01T03:14:22.826Z,2.21
2019-05-01T03:18:03.745Z,2.84
2019-05-01T03:21:39.807Z,3.3
2019-05-01T03:25:10.774Z,2.75
2019-05-01T03:28:41.033Z,2.98
2019-05-01T03:32:17.823Z,3.08
2019-05-01T03:35:48.811Z,2.79
2019-05-01T03:39:19.308Z,2.55
2019-05-01T03:42:49.744Z,2.48
2019-05-01T03:46:20.027Z,3.61
2019-05-01T03:49:50.655Z,2.6
2019-05-01T03:53:22.022Z,2.86
2019-05-01T03:56:52.200Z,2.62
2019-05-01T04:00:41.262Z,2.83
2019-05-01T04:04:15.094Z,3.45
2019-05-01T04:07:46.071Z,2.86
2019-05-01T04:11:16.129Z,3.25
2019-05-01T04:14:47.039Z,2.79
2019-05-01T04:18:17.508Z,3.61
2019-05-01T04:21:54.355Z,3.21
2019-05-01T04:25:24.802Z,3.26
2019-05-01T04:29:05.765Z,4.53
2019-05-01T04:32:50.877Z,3.89
2019-05-01T04:36:27.620Z,4.49
2019-05-01T04:39:57.791Z,3.91
2019-05-01T04:43:27.977Z,3.77
2019-05-01T04:46:58.397Z,4.96
2019-05-01T04:50:28.592Z,4.34
2019-05-01T04:53:59.905Z,3.7
2019-05-01T04:57:45.023Z,3.62
2019-05-01T05:00:16.466Z,3.35
2019-05-01T05:03:46.674Z,3.84
2019-05-01T05:07:17.122Z,3.66
2019-05-01T05:10:48.009Z,3.94
2019-05-01T05:14:22.500Z,4.05
2019-05-01T05:17:52.865Z,4.2
2019-05-01T05:21:23.004Z,3.74
2019-05-01T05:24:53.427Z,3.8
2019-05-01T05:28:24.966Z,3.72
2019-05-01T05:31:59.452Z,3.24
2019-05-01T05:35:31.485Z,3.47
2019-05-01T05:39:10.660Z,3.42
2019-05-01T05:42:40.869Z,3.22
2019-05-01T05:46:11.504Z,3.36
2019-05-01T05:49:41.497Z,3.15
2019-05-01T05:53:29.571Z,3.11
2019-05-01T05:57:02.349Z,4.45
2019-05-01T06:01:17.104Z,4.69
2019-05-01T06:05:04.582Z,4.7
2019-05-01T06:08:39.008Z,2.64
2019-05-01T06:12:48.980Z,2.9
2019-05-01T06:16:30.229Z,2.96
2019-05-01T06:21:22.606Z,3.65
2019-05-01T06:24:58.266Z,2.66
2019-05-01T06:28:29.626Z,2.7
2019-05-01T06:32:00.077Z,2.96
2019-05-01T06:35:33.931Z,3.59
2019-05-01T06:39:11.622Z,4.19
2019-05-01T06:42:45.650Z,3.54
2019-05-01T06:46:27.177Z,3.16
2019-05-01T06:50:08.068Z,2.7
2019-05-01T06:53:39.987Z,3.14
2019-05-01T06:57:12.218Z,3.96
2019-05-01T07:00:18.057Z,4.49
2019-05-01T07:04:02.930Z,3.95
2019-05-01T07:07:34.465Z,5.2
2019-05-01T07:11:04.661Z,3.2
2019-05-01T07:14:35.050Z,3.29
2019-05-01T07:18:05.207Z,4.74
2019-05-01T07:21:35.712Z,3.64
2019-05-01T07:25:06.538Z,4.45
2019-05-01T07:28:37.950Z,3.65
2019-05-01T07:32:08.167Z,3.54
2019-05-01T07:35:38.516Z,3.64
2019-05-01T07:39:09.811Z,3.65
2019-05-01T07:42:48.469Z,2.89
2019-05-01T07:46:29.403Z,3.09
2019-05-01T07:50:05.355Z,2.58
2019-05-01T07:53:36.271Z,3.41
2019-05-01T07:57:06.390Z,3.11
2019-05-01T08:00:47.132Z,2.25
2019-05-01T08:04:19.755Z,2.1
2019-05-01T08:07:57.765Z,2.36
2019-05-01T08:11:28.073Z,2.46
2019-05-01T08:14:57.967Z,7.18
2019-05-01T08:18:36.223Z,2.78
2019-05-01T08:22:11.222Z,3.34
2019-05-01T08:25:41.324Z,3.29
2019-05-01T08:31:41.492Z,1.99
2019-05-01T08:35:13.471Z,2.26
2019-05-01T08:38:43.572Z,2.84
2019-05-01T08:42:13.625Z,2.48
2019-05-01T08:46:03.564Z,1.97
2019-05-01T08:49:49.506Z,2.21
2019-05-01T08:53:22.147Z,2.58
2019-05-01T08:56:58.218Z,1.77
2019-05-01T09:00:16.382Z,2.17
2019-05-01T09:03:49.641Z,1.83
2019-05-01T09:07:24.249Z,1.62
2019-05-01T09:10:54.817Z,2.67
2019-05-01T09:14:29.731Z,1.44
2019-05-01T09:18:04.593Z,1.46
2019-05-01T09:21:37.991Z,1.76
2019-05-01T09:25:10.876Z,1.69
2019-05-01T09:28:45.202Z,2.26
2019-05-01T09:32:15.469Z,1.49
2019-05-01T09:35:46.744Z,1.09
2019-05-01T09:39:17.629Z,2.89
2019-05-01T09:42:47.938Z,3.16
2019-05-01T09:46:18.001Z,2.41
2019-05-01T09:49:48.840Z,2
2019-05-01T09:53:34.312Z,1.49
2019-05-01T09:57:05.501Z,1.21
2019-05-01T10:00:35.617Z,1.06
2019-05-01T10:04:06.782Z,1.4
2019-05-01T10:07:36.870Z,1.4
2019-05-01T10:11:07.065Z,1.35
2019-05-01T10:14:37.468Z,1.34
2019-05-01T10:18:07.699Z,1.09
2019-05-01T10:21:37.752Z,1.19
2019-05-01T10:25:08.528Z,1.69
2019-05-01T10:29:05.567Z,1.19
2019-05-01T10:32:39.990Z,0.81
2019-05-01T10:36:31.914Z,1.29
2019-05-01T10:40:02.973Z,0.75
2019-05-01T10:43:33.096Z,1.5
2019-05-01T10:47:03.323Z,2.91
2019-05-01T10:50:33.311Z,1.05
2019-05-01T10:54:03.617Z,1.17
2019-05-01T10:57:35.245Z,1.16
2019-05-01T11:00:16.328Z,1.64
2019-05-01T11:03:46.376Z,1.16
2019-05-01T11:07:18.154Z,1.74
2019-05-01T11:10:48.268Z,1.84
2019-05-01T11:14:18.374Z,1.48
2019-05-01T11:17:48.368Z,1.1
2019-05-01T11:21:18.474Z,1.29
2019-05-01T11:24:48.444Z,1.23
2019-05-01T11:28:18.584Z,0.96
2019-05-01T11:31:59.344Z,0.97
2019-05-01T11:38:15.266Z,0.96
2019-05-01T11:41:50.444Z,1
2019-05-01T11:45:20.750Z,1.36
2019-05-01T11:48:50.732Z,0.91
2019-05-01T11:52:20.830Z,1.44
2019-05-01T11:55:50.869Z,0.79
2019-05-01T11:59:20.918Z,1.44
2019-05-01T12:02:50.910Z,1.19
2019-05-01T12:06:23.010Z,0.89
2019-05-01T12:09:54.260Z,1.06
2019-05-01T12:13:24.337Z,0.95
2019-05-01T12:17:03.696Z,1.07
2019-05-01T12:20:33.801Z,0.62
2019-05-01T12:24:03.894Z,1.41
2019-05-01T12:27:33.961Z,1.71
2019-05-01T12:31:03.899Z,1.1
2019-05-01T12:34:34.013Z,1.05
2019-05-01T12:38:04.264Z,1.14
2019-05-01T12:41:40.398Z,1.1
2019-05-01T12:45:13.351Z,1.24
2019-05-01T12:48:43.357Z,1.04
2019-05-01T12:52:23.826Z,0.81
2019-05-01T12:56:13.742Z,1.18
2019-05-01T12:59:43.895Z,1.45
2019-05-01T13:00:33.237Z,1.31
2019-05-01T13:04:03.420Z,1.15
2019-05-01T13:07:33.716Z,1.04
2019-05-01T13:11:05.097Z,1.23
2019-05-01T13:14:35.053Z,0.92
2019-05-01T13:18:05.145Z,1.26
2019-05-01T13:21:35.153Z,0.78
2019-05-01T13:25:05.491Z,1.1
2019-05-01T13:29:11.443Z,0.93
2019-05-01T13:32:46.513Z,0.85
2019-05-01T13:36:16.619Z,1.01
2019-05-01T13:39:46.742Z,1.7
2019-05-01T13:43:16.897Z,0.94
2019-05-01T13:46:47.027Z,1.07
2019-05-01T13:50:17.154Z,1.21
2019-05-01T13:53:47.327Z,1.09
2019-05-01T13:57:17.526Z,1.06
2019-05-01T14:00:47.688Z,1.68
2019-05-01T14:04:17.744Z,1.35
2019-05-01T14:07:47.789Z,1.25
2019-05-01T14:11:18.762Z,3.04
2019-05-01T14:14:48.953Z,1.93
2019-05-01T14:18:19.062Z,1.64
2019-05-01T14:21:57.179Z,2.2
2019-05-01T14:25:56.681Z,2.27
2019-05-01T14:29:26.768Z,1.95
2019-05-01T14:32:56.807Z,1.77
2019-05-01T14:36:26.817Z,2.75
2019-05-01T14:39:56.936Z,1.98
2019-05-01T14:43:27.056Z,1.97
2019-05-01T14:46:57.162Z,3.44
2019-05-01T14:50:27.252Z,2.24
2019-05-01T14:53:57.285Z,2.92
2019-05-01T14:57:27.436Z,2.48
2019-05-01T15:00:15.866Z,2.64
2019-05-01T15:03:45.934Z,3.6
2019-05-01T15:07:15.970Z,2.06
2019-05-01T15:10:46.113Z,1.48
2019-05-01T15:14:24.742Z,1.89
2019-05-01T15:18:14.988Z,2.34
2019-05-01T15:21:44.981Z,2.44
2019-05-01T15:25:15.180Z,2.19
2019-05-01T15:28:45.176Z,3.61
2019-05-01T15:32:15.240Z,3.11
2019-05-01T15:35:45.326Z,2.75
2019-05-01T15:39:26.244Z,2.04
2019-05-01T15:43:00.377Z,2.71
2019-05-01T15:46:30.653Z,2.04
2019-05-01T15:50:00.737Z,2.35
2019-05-01T15:53:30.851Z,2.24
2019-05-01T15:57:00.952Z,1.98
2019-05-01T16:00:31.037Z,2.8
2019-05-01T16:04:01.235Z,2.04
2019-05-01T16:07:31.220Z,2.19
2019-05-01T16:11:10.076Z,2.19
2019-05-01T16:14:40.575Z,2.24
2019-05-01T16:18:11.009Z,1.89
2019-05-01T16:21:41.273Z,1.91
2019-05-01T16:25:11.523Z,2.47
2019-05-01T16:28:41.683Z,2.04
2019-05-01T16:32:11.763Z,2.16
2019-05-01T16:35:41.883Z,3.31
2019-05-01T16:41:33.110Z,1.82
2019-05-01T16:45:04.948Z,1.98
2019-05-01T16:48:35.099Z,2.38
2019-05-01T16:52:05.230Z,2.71
2019-05-01T16:55:35.277Z,2.11
2019-05-01T16:59:05.325Z,2.17
2019-05-01T17:00:18.953Z,2.97
2019-05-01T17:04:59.132Z,2.23
2019-05-01T17:09:21.032Z,2.41
2019-05-01T17:12:52.643Z,2.38
2019-05-01T17:16:24.642Z,2.55
2019-05-01T17:19:54.751Z,2.09
2019-05-01T17:23:24.880Z,2.44
2019-05-01T17:26:55.040Z,2.45
2019-05-01T17:30:38.775Z,1.91
2019-05-01T17:34:09.795Z,2.25
2019-05-01T17:37:39.876Z,1.98
2019-05-01T17:41:09.915Z,2.5
2019-05-01T17:44:39.893Z,2.61
2019-05-01T17:48:10.037Z,2.01
2019-05-01T17:51:42.663Z,4.75
2019-05-01T17:55:16.483Z,2.71
2019-05-01T17:58:46.585Z,2.51
2019-05-01T18:02:27.393Z,2.15
2019-05-01T18:06:06.986Z,2.65
2019-05-01T18:09:37.024Z,3.58
2019-05-01T18:13:07.236Z,1.75
2019-05-01T18:16:38.267Z,2.5
2019-05-01T18:20:08.654Z,2.7
2019-05-01T18:24:12.957Z,1.7
2019-05-01T18:28:30.101Z,1.44
2019-05-01T18:32:02.943Z,1.25
2019-05-01T18:35:37.864Z,1.21
2019-05-01T18:39:16.869Z,1.44
2019-05-01T18:42:47.187Z,1.25
2019-05-01T18:46:17.488Z,1.68
2019-05-01T18:49:47.395Z,1.62
2019-05-01T18:53:18.073Z,0.99
2019-05-01T18:56:48.809Z,0.86
2019-05-01T19:00:15.371Z,1.66
2019-05-01T19:03:45.527Z,0.84
2019-05-01T19:07:15.577Z,1.39
2019-05-01T19:10:46.153Z,0.88
2019-05-01T19:14:18.068Z,0.76
2019-05-01T19:17:50.305Z,1.15
2019-05-01T19:21:24.608Z,3.65
2019-05-01T19:24:57.009Z,1.06
2019-05-01T19:28:27.552Z,0.84
2019-05-01T19:31:58.118Z,1.46
2019-05-01T19:35:28.993Z,2.05
2019-05-01T19:39:06.853Z,0.78
2019-05-01T19:42:43.623Z,0.88
2019-05-01T19:46:14.443Z,1.06
2019-05-01T19:49:45.007Z,1.24
2019-05-01T19:53:15.918Z,0.99
2019-05-01T19:56:46.317Z,2.06
2019-05-01T20:00:50.528Z,1.29
2019-05-01T20:04:20.821Z,1.95
2019-05-01T20:07:51.256Z,1
2019-05-01T20:11:25.751Z,0.91
2019-05-01T20:14:56.032Z,1.41
2019-05-01T20:18:26.570Z,1.24
2019-05-01T20:21:56.792Z,0.96
2019-05-01T20:25:26.945Z,0.94
2019-05-01T20:28:57.512Z,1.12
2019-05-01T20:32:30.504Z,0.78
2019-05-01T20:36:04.850Z,1.25
2019-05-01T20:39:35.556Z,0.79
2019-05-01T20:43:07.118Z,1.44
2019-05-01T20:46:37.373Z,1.29
2019-05-01T20:50:15.365Z,0.94
2019-05-01T20:53:45.438Z,1.4
2019-05-01T20:57:23.580Z,1.49
2019-05-01T21:00:18.651Z,1.19
2019-05-01T21:04:02.046Z,1.12
2019-05-01T21:07:36.162Z,1.16
2019-05-01T21:11:10.951Z,1.44
2019-05-01T21:14:45.271Z,1.61
2019-05-01T21:18:20.923Z,1.24
2019-05-01T21:21:56.338Z,1.67
2019-05-01T21:25:26.477Z,0.96
2019-05-01T21:28:56.584Z,1.21
2019-05-01T21:32:27.639Z,1.59
2019-05-01T21:35:59.459Z,1.38
2019-05-01T21:39:33.804Z,2.17
2019-05-01T21:43:03.923Z,1.76
2019-05-01T21:46:34.147Z,1.49
2019-05-01T21:50:04.492Z,1.41
2019-05-01T21:53:37.271Z,1.65
2019-05-01T21:57:16.702Z,1.6
2019-05-01T22:00:47.639Z,1.51
2019-05-01T22:04:17.768Z,2.2
2019-05-01T22:07:47.904Z,2.07
2019-05-01T22:11:18.006Z,1.31
2019-05-01T22:14:53.942Z,1.74
2019-05-01T22:19:29.550Z,2.83
2019-05-01T22:23:04.055Z,1.85
2019-05-01T22:26:37.068Z,2.42
2019-05-01T22:30:46.407Z,1.98
2019-05-01T22:34:53.649Z,2.1
2019-05-01T22:38:23.714Z,3.08
2019-05-01T22:41:53.953Z,2.94
2019-05-01T22:45:24.920Z,1.96
2019-05-01T22:48:54.985Z,2.33
2019-05-01T22:52:24.987Z,3.04
2019-05-01T22:55:57.301Z,2.28
2019-05-01T22:59:31.759Z,2.19
2019-05-01T23:00:25.391Z,2.26
2019-05-01T23:03:58.827Z,1.26
2019-05-01T23:07:28.839Z,0.88
2019-05-01T23:10:59.055Z,1.8
2019-05-01T23:14:29.904Z,0.74
2019-05-01T23:17:59.990Z,1.45
2019-05-01T23:21:29.941Z,1.88
2019-05-01T23:25:01.785Z,0.65
2019-05-01T23:28:34.920Z,1.34
2019-05-01T23:32:09.538Z,1.38
2019-05-01T23:35:39.597Z,0.57
2019-05-01T23:39:11.583Z,1.73
2019-05-01T23:42:43.242Z,1.19
2019-05-01T23:46:19.780Z,2
2019-05-01T23:49:52.488Z,1.56
2019-05-01T23:53:23.864Z,1.45
2019-05-01T23:56:53.901Z,1.96
